sensor_id;sensor_type;location;lat;lon;timestamp;P1;durP1;ratioP1;P2;durP2;ratioP2
69527;SDS011;57136;51.986;4.468;2022-11-24T00:00:19;12.23;;;2.63;;
69527;SDS011;57136;51.986;4.468;2022-11-24T00:02:45;14.35;;;3.10;;
69527;SDS011;57136;51.986;4.468;2022-11-24T00:05:10;14.10;;;2.58;;
69527;SDS011;57136;51.986;4.468;2022-11-24T00:07:35;15.98;;;3.08;;
69527;SDS011;57136;51.986;4.468;2022-11-24T00:10:01;21.48;;;3.22;;
69527;SDS011;57136;51.986;4.468;2022-11-24T00:12:28;18.42;;;2.90;;
69527;SDS011;57136;51.986;4.468;2022-11-24T00:14:53;22.40;;;3.95;;
69527;SDS011;57136;51.986;4.468;2022-11-24T00:17:19;11.38;;;2.58;;
69527;SDS011;57136;51.986;4.468;2022-11-24T00:19:44;27.33;;;4.72;;
69527;SDS011;57136;51.986;4.468;2022-11-24T00:22:09;13.50;;;3.00;;
69527;SDS011;57136;51.986;4.468;2022-11-24T00:24:35;11.18;;;2.75;;
69527;SDS011;57136;51.986;4.468;2022-11-24T00:27:00;18.55;;;3.90;;
69527;SDS011;57136;51.986;4.468;2022-11-24T00:29:25;16.38;;;3.30;;
69527;SDS011;57136;51.986;4.468;2022-11-24T00:31:52;14.98;;;2.97;;
69527;SDS011;57136;51.986;4.468;2022-11-24T00:34:17;16.40;;;3.72;;
69527;SDS011;57136;51.986;4.468;2022-11-24T00:36:42;16.42;;;3.05;;
69527;SDS011;57136;51.986;4.468;2022-11-24T00:39:12;8.90;;;3.38;;
69527;SDS011;57136;51.986;4.468;2022-11-24T00:41:39;9.52;;;2.40;;
69527;SDS011;57136;51.986;4.468;2022-11-24T00:44:05;12.45;;;2.70;;
69527;SDS011;57136;51.986;4.468;2022-11-24T00:46:31;15.05;;;2.40;;
69527;SDS011;57136;51.986;4.468;2022-11-24T00:48:57;14.38;;;3.95;;
69527;SDS011;57136;51.986;4.468;2022-11-24T00:51:24;10.13;;;2.80;;
69527;SDS011;57136;51.986;4.468;2022-11-24T00:53:51;14.25;;;2.78;;
69527;SDS011;57136;51.986;4.468;2022-11-24T00:56:17;14.30;;;3.22;;
69527;SDS011;57136;51.986;4.468;2022-11-24T00:58:43;12.50;;;4.03;;
69527;SDS011;57136;51.986;4.468;2022-11-24T01:01:13;14.25;;;2.65;;
69527;SDS011;57136;51.986;4.468;2022-11-24T01:03:41;13.70;;;3.17;;
69527;SDS011;57136;51.986;4.468;2022-11-24T01:06:10;15.77;;;2.58;;
69527;SDS011;57136;51.986;4.468;2022-11-24T01:08:38;9.38;;;2.15;;
69527;SDS011;57136;51.986;4.468;2022-11-24T01:11:05;10.00;;;2.25;;
69527;SDS011;57136;51.986;4.468;2022-11-24T01:13:33;10.88;;;2.05;;
69527;SDS011;57136;51.986;4.468;2022-11-24T01:15:59;8.45;;;2.00;;
69527;SDS011;57136;51.986;4.468;2022-11-24T01:18:24;9.57;;;2.03;;
69527;SDS011;57136;51.986;4.468;2022-11-24T01:20:50;10.90;;;2.15;;
69527;SDS011;57136;51.986;4.468;2022-11-24T01:23:15;18.88;;;2.83;;
69527;SDS011;57136;51.986;4.468;2022-11-24T01:25:40;10.35;;;1.88;;
69527;SDS011;57136;51.986;4.468;2022-11-24T01:28:06;11.27;;;2.42;;
69527;SDS011;57136;51.986;4.468;2022-11-24T01:30:31;10.18;;;2.47;;
69527;SDS011;57136;51.986;4.468;2022-11-24T01:32:57;11.70;;;2.30;;
69527;SDS011;57136;51.986;4.468;2022-11-24T01:35:25;10.05;;;2.25;;
69527;SDS011;57136;51.986;4.468;2022-11-24T01:37:52;14.13;;;2.15;;
69527;SDS011;57136;51.986;4.468;2022-11-24T01:40:17;11.02;;;1.67;;
69527;SDS011;57136;51.986;4.468;2022-11-24T01:42:47;6.82;;;1.80;;
69527;SDS011;57136;51.986;4.468;2022-11-24T01:45:28;10.57;;;2.17;;
69527;SDS011;57136;51.986;4.468;2022-11-24T01:47:56;13.20;;;2.20;;
69527;SDS011;57136;51.986;4.468;2022-11-24T01:50:23;13.88;;;2.42;;
69527;SDS011;57136;51.986;4.468;2022-11-24T01:52:50;11.75;;;2.17;;
69527;SDS011;57136;51.986;4.468;2022-11-24T01:55:22;15.98;;;2.60;;
69527;SDS011;57136;51.986;4.468;2022-11-24T01:58:06;13.30;;;2.22;;
69527;SDS011;57136;51.986;4.468;2022-11-24T02:00:37;10.18;;;2.20;;
69527;SDS011;57136;51.986;4.468;2022-11-24T02:03:06;12.10;;;2.38;;
69527;SDS011;57136;51.986;4.468;2022-11-24T02:05:36;10.82;;;2.13;;
69527;SDS011;57136;51.986;4.468;2022-11-24T02:08:12;8.80;;;2.28;;
69527;SDS011;57136;51.986;4.468;2022-11-24T02:10:44;9.25;;;1.85;;
69527;SDS011;57136;51.986;4.468;2022-11-24T02:13:10;10.90;;;3.55;;
69527;SDS011;57136;51.986;4.468;2022-11-24T02:15:36;7.50;;;2.03;;
69527;SDS011;57136;51.986;4.468;2022-11-24T02:18:02;8.25;;;1.90;;
69527;SDS011;57136;51.986;4.468;2022-11-24T02:20:27;8.23;;;1.45;;
69527;SDS011;57136;51.986;4.468;2022-11-24T02:23:00;10.63;;;1.92;;
69527;SDS011;57136;51.986;4.468;2022-11-24T02:25:38;10.35;;;1.83;;
69527;SDS011;57136;51.986;4.468;2022-11-24T02:28:17;7.30;;;1.70;;
69527;SDS011;57136;51.986;4.468;2022-11-24T02:30:45;6.32;;;1.60;;
69527;SDS011;57136;51.986;4.468;2022-11-24T02:33:11;7.20;;;1.77;;
69527;SDS011;57136;51.986;4.468;2022-11-24T02:35:37;6.15;;;1.50;;
69527;SDS011;57136;51.986;4.468;2022-11-24T02:38:03;9.10;;;1.42;;
69527;SDS011;57136;51.986;4.468;2022-11-24T02:40:28;5.40;;;0.95;;
69527;SDS011;57136;51.986;4.468;2022-11-24T02:43:06;6.85;;;1.27;;
69527;SDS011;57136;51.986;4.468;2022-11-24T02:45:35;3.50;;;0.80;;
69527;SDS011;57136;51.986;4.468;2022-11-24T02:48:00;2.30;;;0.80;;
69527;SDS011;57136;51.986;4.468;2022-11-24T02:50:25;4.90;;;1.00;;
69527;SDS011;57136;51.986;4.468;2022-11-24T02:52:51;4.68;;;0.70;;
69527;SDS011;57136;51.986;4.468;2022-11-24T02:55:16;3.53;;;0.88;;
69527;SDS011;57136;51.986;4.468;2022-11-24T02:57:43;3.72;;;0.43;;
69527;SDS011;57136;51.986;4.468;2022-11-24T03:00:09;0.20;;;0.20;;
69527;SDS011;57136;51.986;4.468;2022-11-24T03:02:35;2.35;;;0.50;;
69527;SDS011;57136;51.986;4.468;2022-11-24T03:05:02;1.00;;;0.20;;
69527;SDS011;57136;51.986;4.468;2022-11-24T03:07:31;4.07;;;0.80;;
69527;SDS011;57136;51.986;4.468;2022-11-24T03:09:58;1.88;;;0.50;;
69527;SDS011;57136;51.986;4.468;2022-11-24T03:12:23;4.85;;;1.08;;
69527;SDS011;57136;51.986;4.468;2022-11-24T03:14:49;8.15;;;1.15;;
69527;SDS011;57136;51.986;4.468;2022-11-24T03:17:17;2.45;;;0.70;;
69527;SDS011;57136;51.986;4.468;2022-11-24T03:19:42;4.05;;;1.00;;
69527;SDS011;57136;51.986;4.468;2022-11-24T03:22:10;10.07;;;1.95;;
69527;SDS011;57136;51.986;4.468;2022-11-24T03:24:37;7.13;;;1.30;;
69527;SDS011;57136;51.986;4.468;2022-11-24T03:27:02;5.25;;;0.93;;
69527;SDS011;57136;51.986;4.468;2022-11-24T03:29:28;6.30;;;1.48;;
69527;SDS011;57136;51.986;4.468;2022-11-24T03:31:54;7.43;;;1.60;;
69527;SDS011;57136;51.986;4.468;2022-11-24T03:34:19;10.85;;;1.55;;
69527;SDS011;57136;51.986;4.468;2022-11-24T03:36:45;9.25;;;1.92;;
69527;SDS011;57136;51.986;4.468;2022-11-24T03:39:10;10.27;;;2.45;;
69527;SDS011;57136;51.986;4.468;2022-11-24T03:41:35;8.57;;;2.10;;
69527;SDS011;57136;51.986;4.468;2022-11-24T03:44:04;10.88;;;2.45;;
69527;SDS011;57136;51.986;4.468;2022-11-24T03:46:29;13.18;;;3.40;;
69527;SDS011;57136;51.986;4.468;2022-11-24T03:48:55;8.13;;;2.00;;
69527;SDS011;57136;51.986;4.468;2022-11-24T03:51:20;13.52;;;2.75;;
69527;SDS011;57136;51.986;4.468;2022-11-24T03:53:45;7.95;;;2.67;;
69527;SDS011;57136;51.986;4.468;2022-11-24T03:56:12;6.78;;;1.70;;
69527;SDS011;57136;51.986;4.468;2022-11-24T03:58:37;4.78;;;2.20;;
69527;SDS011;57136;51.986;4.468;2022-11-24T04:01:03;9.88;;;2.10;;
69527;SDS011;57136;51.986;4.468;2022-11-24T04:03:29;7.40;;;2.35;;
69527;SDS011;57136;51.986;4.468;2022-11-24T04:05:55;7.22;;;2.00;;
69527;SDS011;57136;51.986;4.468;2022-11-24T04:08:21;5.68;;;1.48;;
69527;SDS011;57136;51.986;4.468;2022-11-24T04:10:50;6.30;;;1.70;;
69527;SDS011;57136;51.986;4.468;2022-11-24T04:13:17;5.53;;;1.60;;
69527;SDS011;57136;51.986;4.468;2022-11-24T04:15:45;3.70;;;1.20;;
69527;SDS011;57136;51.986;4.468;2022-11-24T04:18:11;8.15;;;1.42;;
69527;SDS011;57136;51.986;4.468;2022-11-24T04:20:38;3.45;;;0.88;;
69527;SDS011;57136;51.986;4.468;2022-11-24T04:23:04;4.82;;;1.08;;
69527;SDS011;57136;51.986;4.468;2022-11-24T04:25:29;3.92;;;0.60;;
69527;SDS011;57136;51.986;4.468;2022-11-24T04:27:55;3.20;;;0.93;;
69527;SDS011;57136;51.986;4.468;2022-11-24T04:30:21;7.03;;;1.23;;
69527;SDS011;57136;51.986;4.468;2022-11-24T04:32:47;5.47;;;1.00;;
69527;SDS011;57136;51.986;4.468;2022-11-24T04:35:13;6.32;;;1.20;;
69527;SDS011;57136;51.986;4.468;2022-11-24T04:37:38;2.72;;;0.60;;
69527;SDS011;57136;51.986;4.468;2022-11-24T04:40:05;6.28;;;1.15;;
69527;SDS011;57136;51.986;4.468;2022-11-24T04:42:31;4.03;;;0.68;;
69527;SDS011;57136;51.986;4.468;2022-11-24T04:44:57;2.33;;;0.70;;
69527;SDS011;57136;51.986;4.468;2022-11-24T04:47:23;6.00;;;1.40;;
69527;SDS011;57136;51.986;4.468;2022-11-24T04:49:49;4.32;;;0.68;;
69527;SDS011;57136;51.986;4.468;2022-11-24T04:52:16;2.08;;;0.98;;
69527;SDS011;57136;51.986;4.468;2022-11-24T04:54:43;1.98;;;0.57;;
69527;SDS011;57136;51.986;4.468;2022-11-24T04:57:13;2.22;;;0.70;;
69527;SDS011;57136;51.986;4.468;2022-11-24T04:59:40;1.95;;;0.80;;
69527;SDS011;57136;51.986;4.468;2022-11-24T05:02:05;1.83;;;0.80;;
69527;SDS011;57136;51.986;4.468;2022-11-24T05:04:30;2.67;;;1.02;;
69527;SDS011;57136;51.986;4.468;2022-11-24T05:06:56;2.33;;;0.75;;
69527;SDS011;57136;51.986;4.468;2022-11-24T05:09:21;1.65;;;0.57;;
69527;SDS011;57136;51.986;4.468;2022-11-24T05:11:47;1.33;;;0.88;;
69527;SDS011;57136;51.986;4.468;2022-11-24T05:14:13;4.25;;;0.57;;
69527;SDS011;57136;51.986;4.468;2022-11-24T05:16:39;0.70;;;0.40;;
69527;SDS011;57136;51.986;4.468;2022-11-24T05:19:04;4.07;;;0.63;;
69527;SDS011;57136;51.986;4.468;2022-11-24T05:21:30;1.85;;;0.52;;
69527;SDS011;57136;51.986;4.468;2022-11-24T05:23:56;2.50;;;0.68;;
69527;SDS011;57136;51.986;4.468;2022-11-24T05:26:21;4.28;;;0.70;;
69527;SDS011;57136;51.986;4.468;2022-11-24T05:28:47;2.28;;;0.60;;
69527;SDS011;57136;51.986;4.468;2022-11-24T05:31:12;3.22;;;0.88;;
69527;SDS011;57136;51.986;4.468;2022-11-24T05:33:37;2.25;;;1.20;;
69527;SDS011;57136;51.986;4.468;2022-11-24T05:36:04;6.78;;;1.48;;
69527;SDS011;57136;51.986;4.468;2022-11-24T05:38:31;3.40;;;0.98;;
69527;SDS011;57136;51.986;4.468;2022-11-24T05:41:01;6.03;;;1.55;;
69527;SDS011;57136;51.986;4.468;2022-11-24T05:43:28;8.55;;;1.55;;
69527;SDS011;57136;51.986;4.468;2022-11-24T05:45:56;5.10;;;1.60;;
69527;SDS011;57136;51.986;4.468;2022-11-24T05:48:23;4.68;;;1.52;;
69527;SDS011;57136;51.986;4.468;2022-11-24T05:50:55;2.40;;;1.27;;
69527;SDS011;57136;51.986;4.468;2022-11-24T05:53:22;4.70;;;2.05;;
69527;SDS011;57136;51.986;4.468;2022-11-24T05:55:47;5.35;;;1.98;;
69527;SDS011;57136;51.986;4.468;2022-11-24T05:58:13;4.40;;;2.38;;
69527;SDS011;57136;51.986;4.468;2022-11-24T06:00:39;4.32;;;2.53;;
69527;SDS011;57136;51.986;4.468;2022-11-24T06:03:04;7.15;;;2.85;;
69527;SDS011;57136;51.986;4.468;2022-11-24T06:05:30;6.40;;;2.58;;
69527;SDS011;57136;51.986;4.468;2022-11-24T06:07:57;5.90;;;2.72;;
69527;SDS011;57136;51.986;4.468;2022-11-24T06:10:23;5.18;;;2.55;;
69527;SDS011;57136;51.986;4.468;2022-11-24T06:12:49;12.05;;;2.67;;
69527;SDS011;57136;51.986;4.468;2022-11-24T06:15:15;6.50;;;2.50;;
69527;SDS011;57136;51.986;4.468;2022-11-24T06:17:41;6.07;;;2.75;;
69527;SDS011;57136;51.986;4.468;2022-11-24T06:20:07;8.30;;;2.85;;
69527;SDS011;57136;51.986;4.468;2022-11-24T06:22:35;10.25;;;3.20;;
69527;SDS011;57136;51.986;4.468;2022-11-24T06:25:04;8.25;;;3.08;;
69527;SDS011;57136;51.986;4.468;2022-11-24T06:27:29;7.95;;;2.55;;
69527;SDS011;57136;51.986;4.468;2022-11-24T06:29:55;5.85;;;2.67;;
69527;SDS011;57136;51.986;4.468;2022-11-24T06:32:20;8.40;;;3.08;;
69527;SDS011;57136;51.986;4.468;2022-11-24T06:34:45;6.05;;;2.50;;
69527;SDS011;57136;51.986;4.468;2022-11-24T06:37:12;6.18;;;2.85;;
69527;SDS011;57136;51.986;4.468;2022-11-24T06:39:37;7.90;;;3.38;;
69527;SDS011;57136;51.986;4.468;2022-11-24T06:42:02;5.32;;;3.08;;
69527;SDS011;57136;51.986;4.468;2022-11-24T06:44:28;4.35;;;2.88;;
69527;SDS011;57136;51.986;4.468;2022-11-24T06:46:54;7.13;;;2.72;;
69527;SDS011;57136;51.986;4.468;2022-11-24T06:49:19;11.23;;;3.90;;
69527;SDS011;57136;51.986;4.468;2022-11-24T06:51:45;5.82;;;2.83;;
69527;SDS011;57136;51.986;4.468;2022-11-24T06:54:12;5.72;;;3.17;;
69527;SDS011;57136;51.986;4.468;2022-11-24T06:56:39;7.53;;;3.28;;
69527;SDS011;57136;51.986;4.468;2022-11-24T06:59:04;8.93;;;3.00;;
69527;SDS011;57136;51.986;4.468;2022-11-24T07:01:30;7.05;;;2.85;;
69527;SDS011;57136;51.986;4.468;2022-11-24T07:03:56;8.50;;;3.42;;
69527;SDS011;57136;51.986;4.468;2022-11-24T07:06:22;8.60;;;3.33;;
69527;SDS011;57136;51.986;4.468;2022-11-24T07:08:49;9.77;;;3.22;;
69527;SDS011;57136;51.986;4.468;2022-11-24T07:11:16;5.30;;;2.42;;
69527;SDS011;57136;51.986;4.468;2022-11-24T07:13:43;11.70;;;2.65;;
69527;SDS011;57136;51.986;4.468;2022-11-24T07:16:13;7.03;;;2.95;;
69527;SDS011;57136;51.986;4.468;2022-11-24T07:18:41;10.50;;;2.90;;
69527;SDS011;57136;51.986;4.468;2022-11-24T07:21:08;6.63;;;2.80;;
69527;SDS011;57136;51.986;4.468;2022-11-24T07:23:34;9.73;;;3.85;;
69527;SDS011;57136;51.986;4.468;2022-11-24T07:26:01;7.80;;;2.35;;
69527;SDS011;57136;51.986;4.468;2022-11-24T07:28:28;6.43;;;2.17;;
69527;SDS011;57136;51.986;4.468;2022-11-24T07:30:54;9.23;;;3.00;;
69527;SDS011;57136;51.986;4.468;2022-11-24T07:33:19;8.00;;;2.50;;
69527;SDS011;57136;51.986;4.468;2022-11-24T07:35:49;7.10;;;2.42;;
69527;SDS011;57136;51.986;4.468;2022-11-24T07:38:15;4.60;;;2.53;;
69527;SDS011;57136;51.986;4.468;2022-11-24T07:40:40;9.90;;;2.60;;
69527;SDS011;57136;51.986;4.468;2022-11-24T07:43:05;5.97;;;2.67;;
69527;SDS011;57136;51.986;4.468;2022-11-24T07:45:30;9.02;;;2.83;;
69527;SDS011;57136;51.986;4.468;2022-11-24T07:47:56;12.07;;;2.80;;
69527;SDS011;57136;51.986;4.468;2022-11-24T07:50:21;13.40;;;2.72;;
69527;SDS011;57136;51.986;4.468;2022-11-24T07:52:46;12.38;;;2.95;;
69527;SDS011;57136;51.986;4.468;2022-11-24T07:55:12;11.30;;;3.08;;
69527;SDS011;57136;51.986;4.468;2022-11-24T07:57:37;9.40;;;2.40;;
69527;SDS011;57136;51.986;4.468;2022-11-24T08:00:03;10.68;;;2.47;;
69527;SDS011;57136;51.986;4.468;2022-11-24T08:02:29;9.23;;;1.98;;
69527;SDS011;57136;51.986;4.468;2022-11-24T08:04:55;13.50;;;2.40;;
69527;SDS011;57136;51.986;4.468;2022-11-24T08:07:20;9.68;;;2.05;;
69527;SDS011;57136;51.986;4.468;2022-11-24T08:09:46;8.45;;;1.70;;
69527;SDS011;57136;51.986;4.468;2022-11-24T08:12:11;7.13;;;1.73;;
69527;SDS011;57136;51.986;4.468;2022-11-24T08:14:36;11.07;;;2.30;;
69527;SDS011;57136;51.986;4.468;2022-11-24T08:17:02;15.30;;;2.67;;
69527;SDS011;57136;51.986;4.468;2022-11-24T08:19:27;11.50;;;2.38;;
69527;SDS011;57136;51.986;4.468;2022-11-24T08:21:52;13.05;;;2.13;;
69527;SDS011;57136;51.986;4.468;2022-11-24T08:24:18;10.15;;;2.10;;
69527;SDS011;57136;51.986;4.468;2022-11-24T08:26:43;9.20;;;2.00;;
69527;SDS011;57136;51.986;4.468;2022-11-24T08:29:09;9.63;;;1.60;;
69527;SDS011;57136;51.986;4.468;2022-11-24T08:31:36;6.13;;;1.80;;
69527;SDS011;57136;51.986;4.468;2022-11-24T08:34:03;14.38;;;2.03;;
69527;SDS011;57136;51.986;4.468;2022-11-24T08:36:29;16.30;;;2.47;;
69527;SDS011;57136;51.986;4.468;2022-11-24T08:38:55;12.75;;;2.50;;
69527;SDS011;57136;51.986;4.468;2022-11-24T08:41:22;7.65;;;1.88;;
69527;SDS011;57136;51.986;4.468;2022-11-24T08:43:48;11.50;;;2.03;;
69527;SDS011;57136;51.986;4.468;2022-11-24T08:46:15;6.20;;;1.83;;
69527;SDS011;57136;51.986;4.468;2022-11-24T08:48:42;18.38;;;2.60;;
69527;SDS011;57136;51.986;4.468;2022-11-24T08:51:11;12.93;;;2.70;;
69527;SDS011;57136;51.986;4.468;2022-11-24T08:53:39;7.43;;;2.25;;
69527;SDS011;57136;51.986;4.468;2022-11-24T08:56:05;12.02;;;2.17;;
69527;SDS011;57136;51.986;4.468;2022-11-24T08:58:32;14.50;;;2.88;;
69527;SDS011;57136;51.986;4.468;2022-11-24T09:01:12;17.90;;;2.35;;
69527;SDS011;57136;51.986;4.468;2022-11-24T09:03:38;9.98;;;1.90;;
69527;SDS011;57136;51.986;4.468;2022-11-24T09:06:07;19.10;;;3.70;;
69527;SDS011;57136;51.986;4.468;2022-11-24T09:08:33;8.68;;;2.28;;
69527;SDS011;57136;51.986;4.468;2022-11-24T09:11:01;11.98;;;2.13;;
69527;SDS011;57136;51.986;4.468;2022-11-24T09:16:04;17.55;;;2.38;;
69527;SDS011;57136;51.986;4.468;2022-11-24T09:18:34;7.57;;;1.98;;
69527;SDS011;57136;51.986;4.468;2022-11-24T09:21:08;11.20;;;2.38;;
69527;SDS011;57136;51.986;4.468;2022-11-24T09:23:37;12.43;;;2.67;;
69527;SDS011;57136;51.986;4.468;2022-11-24T09:26:06;10.85;;;2.05;;
69527;SDS011;57136;51.986;4.468;2022-11-24T09:28:38;12.02;;;2.15;;
69527;SDS011;57136;51.986;4.468;2022-11-24T09:31:05;12.13;;;1.80;;
69527;SDS011;57136;51.986;4.468;2022-11-24T09:33:32;6.93;;;1.33;;
69527;SDS011;57136;51.986;4.468;2022-11-24T09:35:58;8.30;;;1.80;;
69527;SDS011;57136;51.986;4.468;2022-11-24T09:38:24;6.93;;;2.17;;
69527;SDS011;57136;51.986;4.468;2022-11-24T09:40:51;11.23;;;2.05;;
69527;SDS011;57136;51.986;4.468;2022-11-24T09:43:26;9.50;;;1.83;;
69527;SDS011;57136;51.986;4.468;2022-11-24T09:46:07;11.80;;;2.28;;
69527;SDS011;57136;51.986;4.468;2022-11-24T09:48:38;6.75;;;2.10;;
69527;SDS011;57136;51.986;4.468;2022-11-24T09:51:09;11.88;;;2.20;;
69527;SDS011;57136;51.986;4.468;2022-11-24T09:53:36;14.38;;;1.92;;
69527;SDS011;57136;51.986;4.468;2022-11-24T09:56:13;12.15;;;2.40;;
69527;SDS011;57136;51.986;4.468;2022-11-24T09:58:46;13.25;;;2.40;;
69527;SDS011;57136;51.986;4.468;2022-11-24T10:03:52;7.72;;;2.05;;
69527;SDS011;57136;51.986;4.468;2022-11-24T10:11:38;14.05;;;3.10;;
69527;SDS011;57136;51.986;4.468;2022-11-24T10:14:13;11.27;;;2.17;;
69527;SDS011;57136;51.986;4.468;2022-11-24T10:17:09;18.42;;;3.20;;
69527;SDS011;57136;51.986;4.468;2022-11-24T10:25:41;15.02;;;2.22;;
69527;SDS011;57136;51.986;4.468;2022-11-24T10:28:14;13.10;;;2.35;;
69527;SDS011;57136;51.986;4.468;2022-11-24T10:30:40;12.00;;;2.10;;
69527;SDS011;57136;51.986;4.468;2022-11-24T10:33:07;12.05;;;2.47;;
69527;SDS011;57136;51.986;4.468;2022-11-24T10:35:49;12.23;;;2.38;;
69527;SDS011;57136;51.986;4.468;2022-11-24T10:40:58;14.30;;;2.33;;
69527;SDS011;57136;51.986;4.468;2022-11-24T10:43:29;16.75;;;3.15;;
69527;SDS011;57136;51.986;4.468;2022-11-24T10:46:08;14.82;;;2.15;;
69527;SDS011;57136;51.986;4.468;2022-11-24T10:49:12;11.98;;;2.65;;
69527;SDS011;57136;51.986;4.468;2022-11-24T10:54:05;13.05;;;2.80;;
69527;SDS011;57136;51.986;4.468;2022-11-24T10:56:39;12.80;;;2.63;;
69527;SDS011;57136;51.986;4.468;2022-11-24T11:01:52;13.15;;;2.47;;
69527;SDS011;57136;51.986;4.468;2022-11-24T11:04:19;9.98;;;2.50;;
69527;SDS011;57136;51.986;4.468;2022-11-24T11:06:48;17.00;;;2.50;;
69527;SDS011;57136;51.986;4.468;2022-11-24T11:09:18;17.45;;;2.47;;
69527;SDS011;57136;51.986;4.468;2022-11-24T11:11:45;8.13;;;2.30;;
69527;SDS011;57136;51.986;4.468;2022-11-24T11:14:13;17.58;;;2.75;;
69527;SDS011;57136;51.986;4.468;2022-11-24T11:16:54;14.77;;;2.92;;
69527;SDS011;57136;51.986;4.468;2022-11-24T11:22:01;18.90;;;3.38;;
69527;SDS011;57136;51.986;4.468;2022-11-24T11:24:29;12.75;;;2.65;;
69527;SDS011;57136;51.986;4.468;2022-11-24T11:27:38;15.18;;;2.70;;
69527;SDS011;57136;51.986;4.468;2022-11-24T11:29:51;12.70;;;2.13;;
69527;SDS011;57136;51.986;4.468;2022-11-24T11:34:44;12.30;;;2.25;;
69527;SDS011;57136;51.986;4.468;2022-11-24T11:37:11;15.45;;;2.20;;
69527;SDS011;57136;51.986;4.468;2022-11-24T11:39:45;19.75;;;3.15;;
69527;SDS011;57136;51.986;4.468;2022-11-24T11:47:50;14.85;;;2.75;;
69527;SDS011;57136;51.986;4.468;2022-11-24T11:50:21;17.20;;;2.60;;
69527;SDS011;57136;51.986;4.468;2022-11-24T11:58:27;13.25;;;2.25;;
69527;SDS011;57136;51.986;4.468;2022-11-24T12:04:08;16.75;;;2.83;;
69527;SDS011;57136;51.986;4.468;2022-11-24T12:12:46;15.35;;;2.45;;
69527;SDS011;57136;51.986;4.468;2022-11-24T12:17:56;15.85;;;3.13;;
69527;SDS011;57136;51.986;4.468;2022-11-24T12:29:23;10.77;;;2.42;;
69527;SDS011;57136;51.986;4.468;2022-11-24T12:32:10;13.10;;;2.40;;
69527;SDS011;57136;51.986;4.468;2022-11-24T12:43:20;12.88;;;2.85;;
69527;SDS011;57136;51.986;4.468;2022-11-24T12:49:00;12.65;;;2.47;;
69527;SDS011;57136;51.986;4.468;2022-11-24T12:51:40;13.52;;;2.72;;
69527;SDS011;57136;51.986;4.468;2022-11-24T12:54:14;16.50;;;3.17;;
69527;SDS011;57136;51.986;4.468;2022-11-24T12:56:48;9.40;;;2.83;;
69527;SDS011;57136;51.986;4.468;2022-11-24T12:59:26;16.55;;;2.50;;
69527;SDS011;57136;51.986;4.468;2022-11-24T13:02:03;14.38;;;2.92;;
69527;SDS011;57136;51.986;4.468;2022-11-24T13:07:11;10.40;;;2.60;;
69527;SDS011;57136;51.986;4.468;2022-11-24T13:12:28;11.63;;;3.33;;
69527;SDS011;57136;51.986;4.468;2022-11-24T13:14:54;10.13;;;2.75;;
69527;SDS011;57136;51.986;4.468;2022-11-24T13:19:47;15.05;;;3.13;;
69527;SDS011;57136;51.986;4.468;2022-11-24T13:22:15;13.65;;;2.70;;
69527;SDS011;57136;51.986;4.468;2022-11-24T13:24:46;12.20;;;3.40;;
69527;SDS011;57136;51.986;4.468;2022-11-24T13:27:39;13.60;;;2.90;;
69527;SDS011;57136;51.986;4.468;2022-11-24T13:30:53;11.98;;;3.72;;
69527;SDS011;57136;51.986;4.468;2022-11-24T13:38:40;9.75;;;2.70;;
69527;SDS011;57136;51.986;4.468;2022-11-24T13:46:55;10.57;;;2.40;;
69527;SDS011;57136;51.986;4.468;2022-11-24T13:49:22;11.68;;;3.00;;
69527;SDS011;57136;51.986;4.468;2022-11-24T13:51:47;14.75;;;2.95;;
69527;SDS011;57136;51.986;4.468;2022-11-24T13:54:16;18.25;;;2.75;;
69527;SDS011;57136;51.986;4.468;2022-11-24T13:56:41;11.13;;;2.55;;
69527;SDS011;57136;51.986;4.468;2022-11-24T13:59:14;10.65;;;3.22;;
69527;SDS011;57136;51.986;4.468;2022-11-24T14:01:44;14.82;;;2.72;;
69527;SDS011;57136;51.986;4.468;2022-11-24T14:04:20;9.65;;;2.47;;
69527;SDS011;57136;51.986;4.468;2022-11-24T14:12:16;15.75;;;3.10;;
69527;SDS011;57136;51.986;4.468;2022-11-24T14:14:44;15.05;;;2.83;;
69527;SDS011;57136;51.986;4.468;2022-11-24T14:17:15;11.10;;;2.53;;
69527;SDS011;57136;51.986;4.468;2022-11-24T14:19:41;12.50;;;3.10;;
69527;SDS011;57136;51.986;4.468;2022-11-24T14:22:14;14.05;;;2.40;;
69527;SDS011;57136;51.986;4.468;2022-11-24T14:24:43;9.20;;;2.03;;
69527;SDS011;57136;51.986;4.468;2022-11-24T14:27:15;13.23;;;2.53;;
69527;SDS011;57136;51.986;4.468;2022-11-24T14:29:52;16.17;;;3.17;;
69527;SDS011;57136;51.986;4.468;2022-11-24T14:32:19;16.00;;;3.03;;
69527;SDS011;57136;51.986;4.468;2022-11-24T14:34:46;13.77;;;2.30;;
69527;SDS011;57136;51.986;4.468;2022-11-24T14:37:11;12.63;;;2.15;;
69527;SDS011;57136;51.986;4.468;2022-11-24T14:39:40;14.38;;;2.67;;
69527;SDS011;57136;51.986;4.468;2022-11-24T14:42:14;9.27;;;2.05;;
69527;SDS011;57136;51.986;4.468;2022-11-24T14:44:44;21.00;;;3.10;;
69527;SDS011;57136;51.986;4.468;2022-11-24T14:52:31;15.60;;;2.90;;
69527;SDS011;57136;51.986;4.468;2022-11-24T14:54:57;14.60;;;2.50;;
69527;SDS011;57136;51.986;4.468;2022-11-24T14:57:35;9.65;;;2.28;;
69527;SDS011;57136;51.986;4.468;2022-11-24T15:02:49;9.88;;;2.70;;
69527;SDS011;57136;51.986;4.468;2022-11-24T15:05:18;10.27;;;2.80;;
69527;SDS011;57136;51.986;4.468;2022-11-24T15:07:46;10.25;;;2.20;;
69527;SDS011;57136;51.986;4.468;2022-11-24T15:10:17;15.57;;;2.85;;
69527;SDS011;57136;51.986;4.468;2022-11-24T15:12:53;12.70;;;2.90;;
69527;SDS011;57136;51.986;4.468;2022-11-24T15:15:23;6.60;;;2.05;;
69527;SDS011;57136;51.986;4.468;2022-11-24T15:17:58;17.02;;;2.65;;
69527;SDS011;57136;51.986;4.468;2022-11-24T15:25:40;12.90;;;3.55;;
69527;SDS011;57136;51.986;4.468;2022-11-24T15:28:06;14.48;;;4.22;;
69527;SDS011;57136;51.986;4.468;2022-11-24T15:30:33;11.40;;;2.47;;
69527;SDS011;57136;51.986;4.468;2022-11-24T15:33:00;13.80;;;2.33;;
69527;SDS011;57136;51.986;4.468;2022-11-24T15:35:28;18.80;;;3.13;;
69527;SDS011;57136;51.986;4.468;2022-11-24T15:37:55;12.18;;;2.67;;
69527;SDS011;57136;51.986;4.468;2022-11-24T15:40:20;9.20;;;2.42;;
69527;SDS011;57136;51.986;4.468;2022-11-24T15:42:50;15.30;;;3.13;;
69527;SDS011;57136;51.986;4.468;2022-11-24T15:45:17;13.57;;;2.65;;
69527;SDS011;57136;51.986;4.468;2022-11-24T15:47:43;20.42;;;2.85;;
69527;SDS011;57136;51.986;4.468;2022-11-24T15:50:08;14.20;;;2.95;;
69527;SDS011;57136;51.986;4.468;2022-11-24T15:52:34;10.90;;;2.78;;
69527;SDS011;57136;51.986;4.468;2022-11-24T15:55:00;10.90;;;2.28;;
69527;SDS011;57136;51.986;4.468;2022-11-24T15:57:26;14.10;;;3.03;;
69527;SDS011;57136;51.986;4.468;2022-11-24T15:59:52;10.93;;;2.75;;
69527;SDS011;57136;51.986;4.468;2022-11-24T16:02:17;15.30;;;2.67;;
69527;SDS011;57136;51.986;4.468;2022-11-24T16:04:45;11.07;;;2.55;;
69527;SDS011;57136;51.986;4.468;2022-11-24T16:07:11;13.55;;;2.63;;
69527;SDS011;57136;51.986;4.468;2022-11-24T16:09:36;8.25;;;2.88;;
69527;SDS011;57136;51.986;4.468;2022-11-24T16:12:02;11.35;;;2.92;;
69527;SDS011;57136;51.986;4.468;2022-11-24T16:14:28;16.85;;;3.10;;
69527;SDS011;57136;51.986;4.468;2022-11-24T16:16:53;20.70;;;2.97;;
69527;SDS011;57136;51.986;4.468;2022-11-24T16:19:19;17.52;;;3.58;;
69527;SDS011;57136;51.986;4.468;2022-11-24T16:21:46;18.50;;;4.05;;
69527;SDS011;57136;51.986;4.468;2022-11-24T16:24:11;12.82;;;3.03;;
69527;SDS011;57136;51.986;4.468;2022-11-24T16:26:37;10.98;;;2.53;;
69527;SDS011;57136;51.986;4.468;2022-11-24T16:29:02;13.25;;;3.80;;
69527;SDS011;57136;51.986;4.468;2022-11-24T16:31:28;14.07;;;2.60;;
69527;SDS011;57136;51.986;4.468;2022-11-24T16:33:53;14.55;;;2.22;;
69527;SDS011;57136;51.986;4.468;2022-11-24T16:36:19;14.27;;;2.60;;